createdAt,value
2018-09-20T00:01:14.506Z,98955.52
2018-09-20T00:03:42.981Z,98951.45
2018-09-20T00:06:11.469Z,98951.45
2018-09-20T00:08:39.899Z,98955.14
2018-09-20T00:11:08.465Z,98945.69
2018-09-20T00:13:36.965Z,98946.38
2018-09-20T00:16:05.474Z,98948.20
2018-09-20T00:18:34.020Z,98948.20
2018-09-20T00:21:02.796Z,98947.36
2018-09-20T00:23:31.688Z,98944.66
2018-09-20T00:26:00.139Z,98939.53
2018-09-20T00:28:28.761Z,98937.30
2018-09-20T00:30:57.397Z,98935.63
2018-09-20T00:33:25.881Z,98930.03
2018-09-20T00:35:54.338Z,98927.63
2018-09-20T00:38:22.842Z,98934.37
2018-09-20T00:40:51.331Z,98935.91
2018-09-20T00:43:19.784Z,98934.05
2018-09-20T00:45:48.254Z,98924.73
2018-09-20T00:48:16.762Z,98924.41
2018-09-20T00:50:45.201Z,98933.84
2018-09-20T00:53:13.717Z,98935.02
2018-09-20T00:55:42.186Z,98929.61
2018-09-20T00:58:10.698Z,98935.20
2018-09-20T01:00:39.191Z,98934.31
2018-09-20T01:03:07.658Z,98933.58
2018-09-20T01:05:36.134Z,98936.41
2018-09-20T01:08:06.682Z,98933.14
2018-09-20T01:10:35.166Z,98935.80
2018-09-20T01:13:03.865Z,98932.73
2018-09-20T01:15:32.534Z,98931.84
2018-09-20T01:18:01.018Z,98939.29
2018-09-20T01:20:29.464Z,98939.75
2018-09-20T01:22:57.962Z,98932.62
2018-09-20T01:25:26.428Z,98932.94
2018-09-20T01:27:54.926Z,98938.00
2018-09-20T01:30:23.428Z,98939.03
2018-09-20T01:32:51.885Z,98937.49
2018-09-20T01:35:20.344Z,98935.81
2018-09-20T01:37:48.839Z,98938.33
2018-09-20T01:40:17.339Z,98941.20
2018-09-20T01:42:45.813Z,98941.87
2018-09-20T01:45:14.300Z,98939.88
2018-09-20T01:47:42.769Z,98945.27
2018-09-20T01:50:11.230Z,98950.84
2018-09-20T01:52:39.738Z,98949.11
2018-09-20T01:55:08.233Z,98947.20
2018-09-20T01:57:36.705Z,98947.47
2018-09-20T02:00:05.573Z,98947.64
2018-09-20T02:02:34.209Z,98947.76
2018-09-20T02:05:03.663Z,98950.45
2018-09-20T02:07:32.204Z,98941.97
2018-09-20T02:10:00.807Z,98943.60
2018-09-20T02:12:29.481Z,98939.73
2018-09-20T02:14:58.020Z,98940.04
2018-09-20T02:17:26.524Z,98939.47
2018-09-20T02:19:54.974Z,98938.11
2018-09-20T02:22:23.438Z,98946.34
2018-09-20T02:24:51.957Z,98951.20
2018-09-20T02:27:20.405Z,98947.94
2018-09-20T02:29:48.932Z,98948.55
2018-09-20T02:32:17.365Z,98939.84
2018-09-20T02:34:45.865Z,98938.19
2018-09-20T02:37:14.313Z,98941.56
2018-09-20T02:39:42.783Z,98940.80
2018-09-20T02:42:11.285Z,98945.16
2018-09-20T02:44:39.789Z,98949.14
2018-09-20T02:47:08.307Z,98945.09
2018-09-20T02:49:36.792Z,98951.56
2018-09-20T02:52:05.350Z,98947.00
2018-09-20T02:54:33.914Z,98950.66
2018-09-20T02:57:03.030Z,98948.27
2018-09-20T02:59:31.694Z,98955.85
2018-09-20T03:02:00.238Z,98952.71
2018-09-20T03:04:28.991Z,98944.42
2018-09-20T03:06:57.485Z,98948.27
2018-09-20T03:09:25.938Z,98951.61
2018-09-20T03:11:54.525Z,98948.34
2018-09-20T03:14:23.013Z,98947.80
2018-09-20T03:16:51.484Z,98956.91
2018-09-20T03:19:19.985Z,98952.80
2018-09-20T03:21:48.442Z,98948.89
2018-09-20T03:24:16.945Z,98948.35
2018-09-20T03:26:45.459Z,98946.20
2018-09-20T03:29:14.010Z,98947.51
2018-09-20T03:31:42.462Z,98949.13
2018-09-20T03:34:11.039Z,98948.42
2018-09-20T03:36:39.554Z,98948.73
2018-09-20T03:39:09.966Z,98949.27
2018-09-20T03:41:38.493Z,98944.17
2018-09-20T03:44:06.969Z,98948.52
2018-09-20T03:46:35.493Z,98953.00
2018-09-20T03:49:04.769Z,98950.64
2018-09-20T03:51:33.427Z,98945.77
2018-09-20T03:54:02.202Z,98951.25
2018-09-20T03:56:30.641Z,98950.95
2018-09-20T03:58:59.133Z,98956.75
2018-09-20T04:01:27.650Z,98954.05
2018-09-20T04:03:56.200Z,98950.38
2018-09-20T04:06:24.753Z,98948.73
2018-09-20T04:08:53.298Z,98956.81
2018-09-20T04:11:21.929Z,98955.27
2018-09-20T04:13:50.447Z,98961.90
2018-09-20T04:16:18.991Z,98962.73
2018-09-20T04:18:47.456Z,98960.69
2018-09-20T04:21:29.870Z,98957.52
2018-09-20T04:23:58.675Z,98958.80
2018-09-20T04:26:27.377Z,98961.42
2018-09-20T04:28:55.848Z,98964.09
2018-09-20T04:31:24.983Z,98963.24
2018-09-20T04:33:53.497Z,98968.06
2018-09-20T04:36:21.973Z,98970.05
2018-09-20T04:38:50.535Z,98967.52
2018-09-20T04:41:19.209Z,98968.02
2018-09-20T04:43:47.738Z,98971.19
2018-09-20T04:46:16.334Z,98965.46
2018-09-20T04:48:44.849Z,98967.95
2018-09-20T04:51:13.361Z,98970.98
2018-09-20T04:53:41.826Z,98972.33
2018-09-20T04:56:10.388Z,98973.00
2018-09-20T04:58:38.930Z,98975.33
2018-09-20T05:01:07.651Z,98972.59
2018-09-20T05:03:37.158Z,98974.70
2018-09-20T05:06:06.045Z,98982.08
2018-09-20T05:08:34.722Z,98987.75
2018-09-20T05:11:03.806Z,98985.90
2018-09-20T05:13:32.734Z,98986.41
2018-09-20T05:16:01.225Z,98985.69
2018-09-20T05:18:29.955Z,98991.48
2018-09-20T05:20:58.391Z,98996.88
2018-09-20T05:23:26.924Z,98990.85
2018-09-20T05:25:55.452Z,98990.55
2018-09-20T05:28:23.962Z,98996.02
2018-09-20T05:30:52.430Z,98998.28
2018-09-20T05:33:20.996Z,99001.31
2018-09-20T05:35:49.499Z,99000.23
2018-09-20T05:38:17.989Z,98996.61
2018-09-20T05:40:46.518Z,98995.93
2018-09-20T05:43:15.109Z,99007.83
2018-09-20T05:45:43.611Z,99016.36
2018-09-20T05:48:12.131Z,99015.41
2018-09-20T05:50:40.612Z,99009.58
2018-09-20T05:53:09.262Z,99010.09
2018-09-20T05:55:37.786Z,99012.78
2018-09-20T05:58:06.505Z,99006.38
2018-09-20T06:00:35.350Z,99008.63
2018-09-20T06:03:04.298Z,99014.27
2018-09-20T06:05:33.070Z,99012.47
2018-09-20T06:08:01.936Z,99013.77
2018-09-20T06:10:30.538Z,99016.23
2018-09-20T06:12:59.189Z,99013.56
2018-09-20T06:15:27.662Z,99013.17
2018-09-20T06:17:56.141Z,99009.71
2018-09-20T06:20:24.601Z,99010.81
2018-09-20T06:22:53.192Z,99006.84
2018-09-20T06:25:21.671Z,99011.09
2018-09-20T06:27:50.144Z,99014.09
2018-09-20T06:30:18.594Z,99010.66
2018-09-20T06:32:47.184Z,99014.92
2018-09-20T06:35:15.739Z,99012.28
2018-09-20T06:37:44.283Z,99020.50
2018-09-20T06:40:12.714Z,99018.23
2018-09-20T06:42:41.249Z,99020.19
2018-09-20T06:45:11.212Z,99021.08
2018-09-20T06:47:39.899Z,99025.09
2018-09-20T06:50:08.490Z,99031.41
2018-09-20T06:52:37.245Z,99031.09
2018-09-20T06:55:05.871Z,99039.97
2018-09-20T06:57:34.598Z,99034.12
2018-09-20T07:00:04.505Z,99039.08
2018-09-20T07:02:33.569Z,99034.53
2018-09-20T07:05:03.011Z,99023.73
2018-09-20T07:07:31.746Z,99029.71
2018-09-20T07:10:00.627Z,99022.11
2018-09-20T07:12:29.703Z,99025.37
2018-09-20T07:14:58.706Z,99027.42
2018-09-20T07:17:27.482Z,99029.83
2018-09-20T07:19:56.111Z,99034.58
2018-09-20T07:22:24.638Z,99037.84
2018-09-20T07:24:53.270Z,99039.70
2018-09-20T07:27:21.770Z,99036.98
2018-09-20T07:29:50.421Z,99033.59
2018-09-20T07:32:19.003Z,99032.73
2018-09-20T07:34:47.814Z,99031.36
2018-09-20T07:37:16.438Z,99032.85
2018-09-20T07:39:45.132Z,99034.53
2018-09-20T07:42:13.633Z,99029.95
2018-09-20T07:44:42.251Z,99033.63
2018-09-20T07:47:10.871Z,99031.03
2018-09-20T07:49:39.450Z,99031.27
2018-09-20T07:52:07.974Z,99042.09
2018-09-20T07:54:36.582Z,99034.88
2018-09-20T07:57:06.231Z,99028.02
2018-09-20T07:59:35.034Z,99035.69
2018-09-20T08:02:04.133Z,99025.07
2018-09-20T08:04:32.852Z,99030.91
2018-09-20T08:07:01.839Z,99032.69
2018-09-20T08:09:30.990Z,99027.78
2018-09-20T08:11:59.512Z,99031.89
2018-09-20T08:14:28.123Z,99031.53
2018-09-20T08:16:56.657Z,99030.21
2018-09-20T08:19:25.134Z,99037.72
2018-09-20T08:21:53.747Z,99028.78
2018-09-20T08:24:22.613Z,99024.41
2018-09-20T08:26:51.122Z,99028.66
2018-09-20T08:29:19.670Z,99034.83
2018-09-20T08:31:48.137Z,99032.45
2018-09-20T08:34:16.628Z,99025.44
2018-09-20T08:36:45.108Z,99012.16
2018-09-20T08:39:13.769Z,99019.39
2018-09-20T08:41:42.280Z,99014.41
2018-09-20T08:44:10.732Z,99010.70
2018-09-20T08:46:39.241Z,99013.64
2018-09-20T08:49:07.709Z,99000.50
2018-09-20T08:51:36.350Z,99002.20
2018-09-20T08:54:05.170Z,99003.59
2018-09-20T08:56:33.896Z,98999.27
2018-09-20T08:59:02.570Z,99000.64
2018-09-20T09:01:31.053Z,98999.25
2018-09-20T09:03:59.518Z,99000.14
2018-09-20T09:06:28.005Z,98992.70
2018-09-20T09:08:56.538Z,99001.39
2018-09-20T09:11:25.116Z,99000.14
2018-09-20T09:13:54.582Z,98994.50
2018-09-20T09:16:23.122Z,98990.75
2018-09-20T09:18:51.653Z,98992.34
2018-09-20T09:21:20.149Z,98991.30
2018-09-20T09:23:48.614Z,98985.14
2018-09-20T09:26:17.085Z,98989.97
2018-09-20T09:28:45.751Z,98987.42
2018-09-20T09:31:14.232Z,98982.20
2018-09-20T09:33:42.653Z,98978.98
2018-09-20T09:36:11.131Z,98982.63
2018-09-20T09:38:39.678Z,98984.58
2018-09-20T09:41:08.306Z,98984.84
2018-09-20T09:43:36.788Z,98977.17
2018-09-20T09:46:05.390Z,98971.33
2018-09-20T09:48:34.106Z,98975.80
2018-09-20T09:51:03.043Z,98970.81
2018-09-20T09:53:31.511Z,98971.73
2018-09-20T09:55:59.998Z,98973.07
2018-09-20T09:58:28.470Z,98974.28
2018-09-20T10:00:56.942Z,98966.91
2018-09-20T10:03:25.417Z,98961.89
2018-09-20T10:05:53.922Z,98967.23
2018-09-20T10:08:22.364Z,98966.25
2018-09-20T10:10:50.901Z,98960.53
2018-09-20T10:13:19.413Z,98956.78
2018-09-20T10:15:47.970Z,98953.88
2018-09-20T10:18:16.542Z,98951.84
2018-09-20T10:20:45.125Z,98942.84
2018-09-20T10:23:13.587Z,98944.13
2018-09-20T10:25:42.064Z,98953.59
2018-09-20T10:28:10.704Z,98947.08
2018-09-20T10:30:39.242Z,98951.10
2018-09-20T10:33:07.775Z,98945.78
2018-09-20T10:35:36.283Z,98944.25
2018-09-20T10:38:05.070Z,98944.24
2018-09-20T10:40:33.690Z,98946.22
2018-09-20T10:43:02.308Z,98945.66
2018-09-20T10:45:30.858Z,98937.35
2018-09-20T10:47:59.334Z,98937.33
2018-09-20T10:50:27.812Z,98932.63
2018-09-20T10:52:56.314Z,98927.03
2018-09-20T10:55:24.785Z,98928.27
2018-09-20T10:57:53.317Z,98916.41
2018-09-20T11:00:21.868Z,98917.28
2018-09-20T11:02:50.485Z,98907.70
2018-09-20T11:05:19.102Z,98910.28
2018-09-20T11:07:47.596Z,98907.16
2018-09-20T11:10:16.075Z,98905.48
2018-09-20T11:12:44.586Z,98903.70
2018-09-20T11:15:13.138Z,98901.23
2018-09-20T11:17:41.727Z,98897.58
2018-09-20T11:20:10.235Z,98890.03
2018-09-20T11:22:38.768Z,98887.14
2018-09-20T11:25:07.322Z,98883.00
2018-09-20T11:27:35.986Z,98880.53
2018-09-20T11:30:04.759Z,98881.71
2018-09-20T11:32:33.526Z,98877.25
2018-09-20T11:35:02.188Z,98869.70
2018-09-20T11:37:30.730Z,98858.69
2018-09-20T11:39:59.294Z,98858.23
2018-09-20T11:42:27.846Z,98864.26
2018-09-20T11:44:56.410Z,98867.88
2018-09-20T11:47:25.827Z,98851.37
2018-09-20T11:49:54.421Z,98853.73
2018-09-20T11:52:23.194Z,98852.61
2018-09-20T11:54:51.736Z,98847.34
2018-09-20T11:57:20.279Z,98846.72
2018-09-20T11:59:48.786Z,98838.48
2018-09-20T12:02:17.346Z,98831.86
2018-09-20T12:04:45.874Z,98829.63
2018-09-20T12:07:14.366Z,98826.75
2018-09-20T12:09:42.910Z,98823.58
2018-09-20T12:12:11.406Z,98822.33
2018-09-20T12:14:39.935Z,98815.69
2018-09-20T12:17:08.347Z,98813.52
2018-09-20T12:19:36.969Z,98807.51
2018-09-20T12:22:05.585Z,98808.81
2018-09-20T12:24:34.165Z,98807.20
2018-09-20T12:27:03.165Z,98802.59
2018-09-20T12:29:31.757Z,98796.22
2018-09-20T12:32:00.405Z,98789.46
2018-09-20T12:34:28.870Z,98785.47
2018-09-20T12:36:57.315Z,98785.59
2018-09-20T12:39:25.863Z,98777.78
2018-09-20T12:41:54.366Z,98777.19
2018-09-20T12:44:22.890Z,98767.20
2018-09-20T12:46:51.375Z,98765.63
2018-09-20T12:49:19.950Z,98768.83
2018-09-20T12:51:48.429Z,98760.55
2018-09-20T12:54:17.050Z,98759.69
2018-09-20T12:56:45.573Z,98760.30
2018-09-20T12:59:14.128Z,98753.25
2018-09-20T13:01:42.790Z,98749.48
2018-09-20T13:04:11.294Z,98753.05
2018-09-20T13:06:39.813Z,98743.49
2018-09-20T13:09:09.805Z,98742.08
2018-09-20T13:11:38.453Z,98733.89
2018-09-20T13:14:06.942Z,98732.19
2018-09-20T13:16:35.434Z,98731.72
2018-09-20T13:19:04.365Z,98737.20
2018-09-20T13:21:33.000Z,98729.80
2018-09-20T13:24:01.584Z,98724.81
2018-09-20T13:26:30.217Z,98727.94
2018-09-20T13:28:58.756Z,98722.53
2018-09-20T13:31:27.245Z,98717.97
2018-09-20T13:33:55.781Z,98710.83
2018-09-20T13:36:24.398Z,98711.27
2018-09-20T13:38:52.957Z,98706.22
2018-09-20T13:41:21.517Z,98704.06
2018-09-20T13:43:50.077Z,98704.44
2018-09-20T13:46:18.566Z,98692.73
2018-09-20T13:48:47.327Z,98695.52
2018-09-20T13:51:15.799Z,98686.09
2018-09-20T13:53:44.262Z,98691.52
2018-09-20T13:56:12.793Z,98679.99
2018-09-20T13:58:46.482Z,98677.76
2018-09-20T14:01:15.134Z,98672.90
2018-09-20T14:03:43.673Z,98667.86
2018-09-20T14:06:12.221Z,98664.84
2018-09-20T14:08:40.867Z,98666.16
2018-09-20T14:11:09.378Z,98662.38
2018-09-20T14:13:37.869Z,98657.08
2018-09-20T14:16:06.386Z,98661.16
2018-09-20T14:18:34.928Z,98654.34
2018-09-20T14:21:03.698Z,98653.84
2018-09-20T14:23:32.765Z,98649.25
2018-09-20T14:26:01.422Z,98651.86
2018-09-20T14:28:29.965Z,98645.72
2018-09-20T14:30:58.471Z,98647.30
2018-09-20T14:33:26.906Z,98637.02
2018-09-20T14:35:55.398Z,98644.02
2018-09-20T14:38:23.936Z,98631.19
2018-09-20T14:40:52.807Z,98632.95
2018-09-20T14:43:21.613Z,98626.97
2018-09-20T14:45:50.473Z,98617.80
2018-09-20T14:48:18.962Z,98620.92
2018-09-20T14:50:47.451Z,98617.02
2018-09-20T14:53:16.022Z,98616.20
2018-09-20T14:55:44.458Z,98610.28
2018-09-20T14:58:13.046Z,98607.11
2018-09-20T15:00:41.538Z,98602.41
2018-09-20T15:03:10.074Z,98600.77
2018-09-20T15:05:38.582Z,98594.94
2018-09-20T15:08:07.182Z,98587.23
2018-09-20T15:10:35.814Z,98590.34
2018-09-20T15:13:04.567Z,98593.86
2018-09-20T15:15:33.084Z,98578.98
2018-09-20T15:18:01.669Z,98574.50
2018-09-20T15:20:30.139Z,98580.78
2018-09-20T15:22:58.640Z,98580.83
2018-09-20T15:25:27.334Z,98573.17
2018-09-20T15:27:55.924Z,98576.37
2018-09-20T15:30:24.458Z,98561.00
2018-09-20T15:32:53.107Z,98564.20
2018-09-20T15:35:21.622Z,98550.88
2018-09-20T15:37:50.119Z,98548.99
2018-09-20T15:40:18.646Z,98549.58
2018-09-20T15:42:47.181Z,98550.41
2018-09-20T15:45:15.660Z,98540.72
2018-09-20T15:47:44.210Z,98548.36
2018-09-20T15:50:12.750Z,98542.71
2018-09-20T15:52:41.263Z,98538.86
2018-09-20T15:55:09.797Z,98533.66
2018-09-20T15:57:38.585Z,98537.54
2018-09-20T16:00:07.322Z,98531.81
2018-09-20T16:02:36.002Z,98534.26
2018-09-20T16:05:05.037Z,98523.95
2018-09-20T16:07:33.848Z,98523.07
2018-09-20T16:10:02.508Z,98523.73
2018-09-20T16:12:31.017Z,98529.14
2018-09-20T16:14:59.629Z,98519.42
2018-09-20T16:17:28.353Z,98515.05
2018-09-20T16:19:57.062Z,98515.75
2018-09-20T16:22:25.535Z,98517.72
2018-09-20T16:24:54.292Z,98516.94
2018-09-20T16:27:22.772Z,98509.78
2018-09-20T16:34:21.858Z,98508.34
2018-09-20T16:37:04.871Z,98502.97
2018-09-20T16:39:35.115Z,98497.77
2018-09-20T16:42:07.018Z,98490.60
2018-09-20T16:44:35.681Z,98495.09
2018-09-20T16:47:04.453Z,98498.19
2018-09-20T16:49:33.043Z,98491.16
2018-09-20T16:52:01.742Z,98484.97
2018-09-20T16:54:30.269Z,98485.83
2018-09-20T16:56:58.914Z,98486.62
2018-09-20T16:59:27.454Z,98486.14
2018-09-20T17:01:56.100Z,98491.51
2018-09-20T17:04:24.624Z,98489.66
2018-09-20T17:06:53.174Z,98484.44
2018-09-20T17:09:21.745Z,98483.70
2018-09-20T17:11:50.375Z,98484.50
2018-09-20T17:14:18.898Z,98482.46
2018-09-20T17:16:47.512Z,98486.91
2018-09-20T17:19:16.120Z,98486.75
2018-09-20T17:21:44.629Z,98484.02
2018-09-20T17:24:13.102Z,98486.45
2018-09-20T17:26:41.538Z,98488.91
2018-09-20T17:29:10.269Z,98485.38
2018-09-20T17:31:38.718Z,98488.21
2018-09-20T17:34:07.471Z,98485.54
2018-09-20T17:36:36.393Z,98483.75
2018-09-20T17:39:09.221Z,98490.48
2018-09-20T17:41:38.697Z,98494.44
2018-09-20T17:44:09.324Z,98492.41
2018-09-20T17:46:37.838Z,98489.15
2018-09-20T17:49:06.588Z,98491.86
2018-09-20T17:51:35.398Z,98491.33
2018-09-20T17:54:04.318Z,98488.22
2018-09-20T17:56:33.486Z,98491.54
2018-09-20T17:59:02.857Z,98496.67
2018-09-20T18:01:31.469Z,98485.88
2018-09-20T18:04:00.206Z,98488.00
2018-09-20T18:06:28.815Z,98490.86
2018-09-20T18:08:57.338Z,98488.83
2018-09-20T18:11:25.826Z,98481.61
2018-09-20T18:13:55.393Z,98489.26
2018-09-20T18:16:24.015Z,98486.53
2018-09-20T18:18:52.542Z,98491.55
2018-09-20T18:21:21.030Z,98485.53
2018-09-20T18:23:49.762Z,98488.62
2018-09-20T18:26:18.332Z,98488.99
2018-09-20T18:28:46.778Z,98484.18
2018-09-20T18:31:15.674Z,98488.52
2018-09-20T18:33:44.323Z,98488.03
2018-09-20T18:36:13.105Z,98491.93
2018-09-20T18:38:41.566Z,98498.23
2018-09-20T18:41:10.187Z,98500.66
2018-09-20T18:43:38.734Z,98504.75
2018-09-20T18:46:07.330Z,98511.41
2018-09-20T18:48:36.016Z,98510.64
2018-09-20T18:51:05.567Z,98510.78
2018-09-20T18:53:34.126Z,98508.03
2018-09-20T18:56:02.909Z,98505.09
2018-09-20T18:58:31.349Z,98504.56
2018-09-20T19:01:00.068Z,98515.45
2018-09-20T19:03:28.506Z,98515.13
2018-09-20T19:05:57.011Z,98512.94
2018-09-20T19:08:25.446Z,98516.92
2018-09-20T19:10:53.914Z,98514.86
2018-09-20T19:13:22.421Z,98516.12
2018-09-20T19:15:50.929Z,98511.13
2018-09-20T19:18:19.433Z,98517.72
2018-09-20T19:20:48.292Z,98515.59
2018-09-20T19:23:16.807Z,98508.33
2018-09-20T19:25:45.357Z,98509.77
2018-09-20T19:28:14.154Z,98505.90
2018-09-20T19:30:42.621Z,98508.05
2018-09-20T19:33:11.194Z,98507.92
2018-09-20T19:35:39.695Z,98511.28
2018-09-20T19:38:08.207Z,98508.55
2018-09-20T19:40:36.790Z,98514.58
2018-09-20T19:43:41.520Z,98519.26
2018-09-20T19:46:09.953Z,98517.82
2018-09-20T19:48:38.454Z,98508.36
2018-09-20T19:51:06.957Z,98508.70
2018-09-20T19:53:35.766Z,98508.45
2018-09-20T19:56:05.057Z,98514.67
2018-09-20T19:58:33.693Z,98520.12
2018-09-20T20:01:02.288Z,98514.06
2018-09-20T20:03:30.861Z,98518.20
2018-09-20T20:05:59.470Z,98505.28
2018-09-20T20:08:27.982Z,98512.66
2018-09-20T20:10:56.424Z,98509.31
2018-09-20T20:13:24.913Z,98502.76
2018-09-20T20:15:53.449Z,98497.06
2018-09-20T20:18:21.975Z,98499.45
2018-09-20T20:20:50.460Z,98493.70
2018-09-20T20:23:19.174Z,98498.17
2018-09-20T20:25:47.610Z,98491.43
2018-09-20T20:28:16.127Z,98494.34
2018-09-20T20:30:44.606Z,98492.46
2018-09-20T20:33:13.078Z,98487.30
2018-09-20T20:35:41.579Z,98482.91
2018-09-20T20:38:10.087Z,98487.03
2018-09-20T20:40:38.647Z,98487.95
2018-09-20T20:43:07.120Z,98484.14
2018-09-20T20:45:35.679Z,98483.87
2018-09-20T20:48:04.868Z,98484.01
2018-09-20T20:50:33.393Z,98488.17
2018-09-20T20:53:02.003Z,98487.69
2018-09-20T20:55:30.549Z,98485.37
2018-09-20T20:57:59.014Z,98487.82
2018-09-20T21:00:27.495Z,98488.95
2018-09-20T21:02:56.010Z,98487.17
2018-09-20T21:05:24.490Z,98490.27
2018-09-20T21:07:52.914Z,98485.93
2018-09-20T21:10:21.418Z,98485.97
2018-09-20T21:12:49.922Z,98483.38
2018-09-20T21:15:18.625Z,98478.89
2018-09-20T21:17:47.084Z,98483.46
2018-09-20T21:20:15.566Z,98475.39
2018-09-20T21:22:44.038Z,98473.72
2018-09-20T21:25:12.617Z,98476.30
2018-09-20T21:27:41.173Z,98466.06
2018-09-20T21:30:09.709Z,98470.48
2018-09-20T21:32:38.194Z,98467.50
2018-09-20T21:35:06.766Z,98469.37
2018-09-20T21:37:35.497Z,98462.17
2018-09-20T21:40:04.602Z,98466.23
2018-09-20T21:42:33.034Z,98467.31
2018-09-20T21:45:01.580Z,98464.66
2018-09-20T21:47:30.068Z,98457.66
2018-09-20T21:49:58.610Z,98461.61
2018-09-20T21:52:27.150Z,98460.49
2018-09-20T21:54:55.636Z,98460.52
2018-09-20T21:57:24.125Z,98455.84
2018-09-20T21:59:52.619Z,98451.48
2018-09-20T22:02:26.261Z,98454.58
2018-09-20T22:04:55.694Z,98451.14
2018-09-20T22:07:24.156Z,98442.98
2018-09-20T22:09:52.703Z,98438.60
2018-09-20T22:12:21.226Z,98441.19
2018-09-20T22:14:49.722Z,98442.09
2018-09-20T22:17:18.198Z,98452.27
2018-09-20T22:19:46.947Z,98439.09
2018-09-20T22:22:15.454Z,98443.05
2018-09-20T22:24:43.950Z,98448.17
2018-09-20T22:27:12.419Z,98441.25
2018-09-20T22:29:40.951Z,98439.97
2018-09-20T22:32:09.410Z,98438.98
2018-09-20T22:34:37.863Z,98445.78
2018-09-20T22:37:06.749Z,98438.03
2018-09-20T22:39:35.362Z,98438.94
2018-09-20T22:42:04.042Z,98435.41
2018-09-20T22:44:32.556Z,98437.14
2018-09-20T22:47:01.009Z,98437.51
2018-09-20T22:49:29.520Z,98435.50
2018-09-20T22:51:57.974Z,98430.45
2018-09-20T22:54:26.410Z,98432.17
2018-09-20T22:56:55.014Z,98425.72
2018-09-20T22:59:23.493Z,98422.16
2018-09-20T23:01:52.006Z,98423.17
2018-09-20T23:04:20.469Z,98429.31
2018-09-20T23:06:49.232Z,98420.88
2018-09-20T23:09:17.745Z,98420.56
2018-09-20T23:11:46.211Z,98424.98
2018-09-20T23:14:14.719Z,98425.52
2018-09-20T23:16:43.242Z,98421.30
2018-09-20T23:19:11.752Z,98419.79
2018-09-20T23:21:40.345Z,98424.37
2018-09-20T23:24:08.833Z,98419.48
2018-09-20T23:26:37.351Z,98426.60
2018-09-20T23:29:05.929Z,98420.53
2018-09-20T23:31:34.510Z,98413.97
2018-09-20T23:34:03.144Z,98420.05
2018-09-20T23:36:31.671Z,98417.19
2018-09-20T23:39:00.167Z,98417.23
2018-09-20T23:41:28.770Z,98423.97
2018-09-20T23:43:57.173Z,98427.55
2018-09-20T23:46:25.681Z,98420.98
2018-09-20T23:48:54.155Z,98417.59
2018-09-20T23:51:22.602Z,98420.98
2018-09-20T23:53:51.112Z,98414.25
2018-09-20T23:56:19.741Z,98416.80
2018-09-20T23:58:48.198Z,98409.17
